sensor_id;sensor_type;location;lat;lon;timestamp;temperature;humidity
29321;DHT22;16323;51.130;6.612;2022-10-16T00:00:47;20.40;96.00
29321;DHT22;16323;51.130;6.612;2022-10-16T00:03:13;20.40;96.00
29321;DHT22;16323;51.130;6.612;2022-10-16T00:05:41;20.40;96.00
29321;DHT22;16323;51.130;6.612;2022-10-16T00:08:09;20.40;96.00
29321;DHT22;16323;51.130;6.612;2022-10-16T00:10:37;20.40;96.00
29321;DHT22;16323;51.130;6.612;2022-10-16T00:13:05;20.50;96.00
29321;DHT22;16323;51.130;6.612;2022-10-16T00:15:33;20.50;96.00
29321;DHT22;16323;51.130;6.612;2022-10-16T00:18:01;20.50;95.90
29321;DHT22;16323;51.130;6.612;2022-10-16T00:20:28;20.50;95.90
29321;DHT22;16323;51.130;6.612;2022-10-16T00:22:56;20.50;95.90
29321;DHT22;16323;51.130;6.612;2022-10-16T00:25:23;20.50;95.90
29321;DHT22;16323;51.130;6.612;2022-10-16T00:27:51;20.50;95.90
29321;DHT22;16323;51.130;6.612;2022-10-16T00:30:18;20.50;95.90
29321;DHT22;16323;51.130;6.612;2022-10-16T00:32:45;20.40;95.90
29321;DHT22;16323;51.130;6.612;2022-10-16T00:35:11;20.50;95.90
29321;DHT22;16323;51.130;6.612;2022-10-16T00:37:38;20.50;95.90
29321;DHT22;16323;51.130;6.612;2022-10-16T00:40:06;20.40;95.90
29321;DHT22;16323;51.130;6.612;2022-10-16T00:42:33;20.40;95.90
29321;DHT22;16323;51.130;6.612;2022-10-16T00:45:02;20.40;95.90
29321;DHT22;16323;51.130;6.612;2022-10-16T00:47:31;20.40;95.90
29321;DHT22;16323;51.130;6.612;2022-10-16T00:50:02;20.40;95.90
29321;DHT22;16323;51.130;6.612;2022-10-16T00:52:31;20.40;95.80
29321;DHT22;16323;51.130;6.612;2022-10-16T00:54:58;20.40;95.80
29321;DHT22;16323;51.130;6.612;2022-10-16T00:57:26;20.40;95.80
29321;DHT22;16323;51.130;6.612;2022-10-16T00:59:53;20.40;95.80
29321;DHT22;16323;51.130;6.612;2022-10-16T01:02:21;20.40;95.80
29321;DHT22;16323;51.130;6.612;2022-10-16T01:04:51;20.40;95.70
29321;DHT22;16323;51.130;6.612;2022-10-16T01:07:27;20.40;95.80
29321;DHT22;16323;51.130;6.612;2022-10-16T01:10:04;20.50;95.80
29321;DHT22;16323;51.130;6.612;2022-10-16T01:12:38;20.50;95.70
29321;DHT22;16323;51.130;6.612;2022-10-16T01:15:11;20.40;95.70
29321;DHT22;16323;51.130;6.612;2022-10-16T01:17:46;20.40;96.10
29321;DHT22;16323;51.130;6.612;2022-10-16T01:20:22;20.50;95.70
29321;DHT22;16323;51.130;6.612;2022-10-16T01:23:02;20.40;95.70
29321;DHT22;16323;51.130;6.612;2022-10-16T01:25:44;20.40;95.60
29321;DHT22;16323;51.130;6.612;2022-10-16T01:28:15;20.40;95.60
29321;DHT22;16323;51.130;6.612;2022-10-16T01:30:45;20.40;95.60
29321;DHT22;16323;51.130;6.612;2022-10-16T01:33:17;20.40;95.60
29321;DHT22;16323;51.130;6.612;2022-10-16T01:35:48;20.40;95.60
29321;DHT22;16323;51.130;6.612;2022-10-16T01:38:21;20.40;95.70
29321;DHT22;16323;51.130;6.612;2022-10-16T01:40:54;20.40;95.60
29321;DHT22;16323;51.130;6.612;2022-10-16T01:43:26;20.40;95.60
29321;DHT22;16323;51.130;6.612;2022-10-16T01:45:55;20.40;95.60
29321;DHT22;16323;51.130;6.612;2022-10-16T01:48:23;20.40;96.00
29321;DHT22;16323;51.130;6.612;2022-10-16T01:50:54;20.40;95.60
29321;DHT22;16323;51.130;6.612;2022-10-16T01:53:22;20.40;95.60
29321;DHT22;16323;51.130;6.612;2022-10-16T01:55:50;20.40;95.50
29321;DHT22;16323;51.130;6.612;2022-10-16T01:58:18;20.40;95.50
29321;DHT22;16323;51.130;6.612;2022-10-16T02:00:47;20.40;95.50
29321;DHT22;16323;51.130;6.612;2022-10-16T02:03:17;20.40;95.50
29321;DHT22;16323;51.130;6.612;2022-10-16T02:05:46;20.40;95.50
29321;DHT22;16323;51.130;6.612;2022-10-16T02:08:14;20.40;95.50
29321;DHT22;16323;51.130;6.612;2022-10-16T02:10:41;20.40;95.40
29321;DHT22;16323;51.130;6.612;2022-10-16T02:13:10;20.40;95.40
29321;DHT22;16323;51.130;6.612;2022-10-16T02:15:38;20.40;95.40
29321;DHT22;16323;51.130;6.612;2022-10-16T02:18:07;20.40;95.40
29321;DHT22;16323;51.130;6.612;2022-10-16T02:20:40;20.40;95.40
29321;DHT22;16323;51.130;6.612;2022-10-16T02:23:12;20.40;95.40
29321;DHT22;16323;51.130;6.612;2022-10-16T02:25:42;20.40;95.30
29321;DHT22;16323;51.130;6.612;2022-10-16T02:28:15;20.40;95.30
29321;DHT22;16323;51.130;6.612;2022-10-16T02:30:45;20.40;95.40
29321;DHT22;16323;51.130;6.612;2022-10-16T02:33:16;20.40;95.30
29321;DHT22;16323;51.130;6.612;2022-10-16T02:35:46;20.40;95.30
29321;DHT22;16323;51.130;6.612;2022-10-16T02:38:14;20.40;95.30
29321;DHT22;16323;51.130;6.612;2022-10-16T02:40:41;20.40;95.30
29321;DHT22;16323;51.130;6.612;2022-10-16T02:43:09;20.40;95.40
29321;DHT22;16323;51.130;6.612;2022-10-16T02:45:36;20.40;95.30
29321;DHT22;16323;51.130;6.612;2022-10-16T02:48:03;20.40;95.30
29321;DHT22;16323;51.130;6.612;2022-10-16T02:50:32;20.40;95.30
29321;DHT22;16323;51.130;6.612;2022-10-16T02:52:58;20.40;95.20
29321;DHT22;16323;51.130;6.612;2022-10-16T02:55:25;20.40;95.20
29321;DHT22;16323;51.130;6.612;2022-10-16T02:57:53;20.40;95.10
29321;DHT22;16323;51.130;6.612;2022-10-16T03:00:20;20.40;95.10
29321;DHT22;16323;51.130;6.612;2022-10-16T03:02:53;20.40;95.10
29321;DHT22;16323;51.130;6.612;2022-10-16T03:05:20;20.40;95.10
29321;DHT22;16323;51.130;6.612;2022-10-16T03:07:48;20.40;95.00
29321;DHT22;16323;51.130;6.612;2022-10-16T03:10:14;20.40;95.00
29321;DHT22;16323;51.130;6.612;2022-10-16T03:12:41;20.40;94.90
29321;DHT22;16323;51.130;6.612;2022-10-16T03:15:09;20.40;94.90
29321;DHT22;16323;51.130;6.612;2022-10-16T03:17:36;20.40;94.90
29321;DHT22;16323;51.130;6.612;2022-10-16T03:20:03;20.40;94.90
29321;DHT22;16323;51.130;6.612;2022-10-16T03:22:30;20.40;94.80
29321;DHT22;16323;51.130;6.612;2022-10-16T03:24:58;20.40;94.90
29321;DHT22;16323;51.130;6.612;2022-10-16T03:27:25;20.40;94.80
29321;DHT22;16323;51.130;6.612;2022-10-16T03:29:52;20.40;94.80
29321;DHT22;16323;51.130;6.612;2022-10-16T03:32:19;20.40;94.80
29321;DHT22;16323;51.130;6.612;2022-10-16T03:34:46;20.40;94.80
29321;DHT22;16323;51.130;6.612;2022-10-16T03:37:13;20.40;94.80
29321;DHT22;16323;51.130;6.612;2022-10-16T03:39:40;20.40;94.90
29321;DHT22;16323;51.130;6.612;2022-10-16T03:42:08;20.40;94.90
29321;DHT22;16323;51.130;6.612;2022-10-16T03:44:35;20.40;94.90
29321;DHT22;16323;51.130;6.612;2022-10-16T03:47:02;20.40;94.90
29321;DHT22;16323;51.130;6.612;2022-10-16T03:49:28;20.40;94.80
29321;DHT22;16323;51.130;6.612;2022-10-16T03:52:02;20.40;94.70
29321;DHT22;16323;51.130;6.612;2022-10-16T03:54:29;20.40;94.70
29321;DHT22;16323;51.130;6.612;2022-10-16T03:56:55;20.40;94.70
29321;DHT22;16323;51.130;6.612;2022-10-16T03:59:24;20.40;94.70
29321;DHT22;16323;51.130;6.612;2022-10-16T04:01:50;20.40;94.70
29321;DHT22;16323;51.130;6.612;2022-10-16T04:04:17;20.40;94.60
29321;DHT22;16323;51.130;6.612;2022-10-16T04:06:44;20.40;94.50
29321;DHT22;16323;51.130;6.612;2022-10-16T04:09:11;20.40;94.40
29321;DHT22;16323;51.130;6.612;2022-10-16T04:11:37;20.40;94.40
29321;DHT22;16323;51.130;6.612;2022-10-16T04:14:04;20.40;94.40
29321;DHT22;16323;51.130;6.612;2022-10-16T04:16:33;20.40;94.40
29321;DHT22;16323;51.130;6.612;2022-10-16T04:19:00;20.40;94.30
29321;DHT22;16323;51.130;6.612;2022-10-16T04:21:27;20.40;94.30
29321;DHT22;16323;51.130;6.612;2022-10-16T04:23:54;20.40;94.20
29321;DHT22;16323;51.130;6.612;2022-10-16T04:26:22;20.40;94.40
29321;DHT22;16323;51.130;6.612;2022-10-16T04:28:48;20.40;94.40
29321;DHT22;16323;51.130;6.612;2022-10-16T04:31:15;20.40;94.50
29321;DHT22;16323;51.130;6.612;2022-10-16T04:33:43;20.40;94.40
29321;DHT22;16323;51.130;6.612;2022-10-16T04:36:10;20.40;94.50
29321;DHT22;16323;51.130;6.612;2022-10-16T04:38:37;20.40;94.40
29321;DHT22;16323;51.130;6.612;2022-10-16T04:41:05;20.40;94.40
29321;DHT22;16323;51.130;6.612;2022-10-16T04:43:32;20.40;94.40
29321;DHT22;16323;51.130;6.612;2022-10-16T04:45:59;20.40;94.40
29321;DHT22;16323;51.130;6.612;2022-10-16T04:48:27;20.40;94.20
29321;DHT22;16323;51.130;6.612;2022-10-16T04:50:55;20.40;94.20
29321;DHT22;16323;51.130;6.612;2022-10-16T04:53:22;20.40;94.20
29321;DHT22;16323;51.130;6.612;2022-10-16T04:55:49;20.40;94.20
29321;DHT22;16323;51.130;6.612;2022-10-16T04:58:16;20.40;94.20
29321;DHT22;16323;51.130;6.612;2022-10-16T05:00:44;20.40;94.20
29321;DHT22;16323;51.130;6.612;2022-10-16T05:03:12;20.40;94.20
29321;DHT22;16323;51.130;6.612;2022-10-16T05:05:42;20.40;94.20
29321;DHT22;16323;51.130;6.612;2022-10-16T05:08:11;20.40;94.20
29321;DHT22;16323;51.130;6.612;2022-10-16T05:10:38;20.40;94.20
29321;DHT22;16323;51.130;6.612;2022-10-16T05:13:05;20.40;94.20
29321;DHT22;16323;51.130;6.612;2022-10-16T05:15:32;20.40;94.20
29321;DHT22;16323;51.130;6.612;2022-10-16T05:17:58;20.40;94.20
29321;DHT22;16323;51.130;6.612;2022-10-16T05:20:25;20.40;94.20
29321;DHT22;16323;51.130;6.612;2022-10-16T05:22:52;20.40;94.20
29321;DHT22;16323;51.130;6.612;2022-10-16T05:25:20;20.40;94.20
29321;DHT22;16323;51.130;6.612;2022-10-16T05:27:52;20.40;94.20
29321;DHT22;16323;51.130;6.612;2022-10-16T05:30:19;20.40;94.20
29321;DHT22;16323;51.130;6.612;2022-10-16T05:32:47;20.40;94.20
29321;DHT22;16323;51.130;6.612;2022-10-16T05:35:14;20.40;94.20
29321;DHT22;16323;51.130;6.612;2022-10-16T05:37:41;20.40;94.20
29321;DHT22;16323;51.130;6.612;2022-10-16T05:40:08;20.40;94.20
29321;DHT22;16323;51.130;6.612;2022-10-16T05:42:36;20.40;94.20
29321;DHT22;16323;51.130;6.612;2022-10-16T05:45:04;20.40;94.20
29321;DHT22;16323;51.130;6.612;2022-10-16T05:47:31;20.40;94.10
29321;DHT22;16323;51.130;6.612;2022-10-16T05:49:58;20.40;94.00
29321;DHT22;16323;51.130;6.612;2022-10-16T05:52:28;20.40;94.10
29321;DHT22;16323;51.130;6.612;2022-10-16T05:54:54;20.40;94.00
29321;DHT22;16323;51.130;6.612;2022-10-16T05:57:21;20.40;94.00
29321;DHT22;16323;51.130;6.612;2022-10-16T05:59:49;20.40;94.00
29321;DHT22;16323;51.130;6.612;2022-10-16T06:02:16;20.40;94.00
29321;DHT22;16323;51.130;6.612;2022-10-16T06:04:43;20.30;93.80
29321;DHT22;16323;51.130;6.612;2022-10-16T06:07:10;20.40;93.90
29321;DHT22;16323;51.130;6.612;2022-10-16T06:09:36;20.40;93.70
29321;DHT22;16323;51.130;6.612;2022-10-16T06:12:03;20.40;93.60
29321;DHT22;16323;51.130;6.612;2022-10-16T06:14:30;20.40;93.60
29321;DHT22;16323;51.130;6.612;2022-10-16T06:16:58;20.40;93.50
29321;DHT22;16323;51.130;6.612;2022-10-16T06:19:25;20.40;93.50
29321;DHT22;16323;51.130;6.612;2022-10-16T06:21:52;20.40;93.50
29321;DHT22;16323;51.130;6.612;2022-10-16T06:24:19;20.40;93.50
29321;DHT22;16323;51.130;6.612;2022-10-16T06:26:45;20.40;93.50
29321;DHT22;16323;51.130;6.612;2022-10-16T06:29:12;20.40;93.40
29321;DHT22;16323;51.130;6.612;2022-10-16T06:31:39;20.40;93.30
29321;DHT22;16323;51.130;6.612;2022-10-16T06:34:09;20.40;93.30
29321;DHT22;16323;51.130;6.612;2022-10-16T06:36:37;20.40;93.30
29321;DHT22;16323;51.130;6.612;2022-10-16T06:39:04;20.40;93.20
29321;DHT22;16323;51.130;6.612;2022-10-16T06:41:33;20.40;93.30
29321;DHT22;16323;51.130;6.612;2022-10-16T06:44:01;20.40;93.30
29321;DHT22;16323;51.130;6.612;2022-10-16T06:46:28;20.40;93.20
29321;DHT22;16323;51.130;6.612;2022-10-16T06:48:55;20.40;93.20
29321;DHT22;16323;51.130;6.612;2022-10-16T06:51:24;20.40;93.20
29321;DHT22;16323;51.130;6.612;2022-10-16T06:53:52;20.40;93.10
29321;DHT22;16323;51.130;6.612;2022-10-16T06:56:21;20.40;93.10
29321;DHT22;16323;51.130;6.612;2022-10-16T06:58:49;20.40;93.10
29321;DHT22;16323;51.130;6.612;2022-10-16T07:01:17;20.40;93.10
29321;DHT22;16323;51.130;6.612;2022-10-16T07:03:45;20.40;93.10
29321;DHT22;16323;51.130;6.612;2022-10-16T07:06:14;20.40;93.10
29321;DHT22;16323;51.130;6.612;2022-10-16T07:08:43;20.40;93.00
29321;DHT22;16323;51.130;6.612;2022-10-16T07:11:12;20.40;92.70
29321;DHT22;16323;51.130;6.612;2022-10-16T07:13:42;20.40;92.90
29321;DHT22;16323;51.130;6.612;2022-10-16T07:16:10;20.40;92.90
29321;DHT22;16323;51.130;6.612;2022-10-16T07:18:37;20.40;92.90
29321;DHT22;16323;51.130;6.612;2022-10-16T07:21:06;20.40;92.90
29321;DHT22;16323;51.130;6.612;2022-10-16T07:23:34;20.40;92.80
29321;DHT22;16323;51.130;6.612;2022-10-16T07:26:03;20.40;92.80
29321;DHT22;16323;51.130;6.612;2022-10-16T07:28:30;20.40;92.80
29321;DHT22;16323;51.130;6.612;2022-10-16T07:31:00;20.50;92.80
29321;DHT22;16323;51.130;6.612;2022-10-16T07:33:27;20.50;92.70
29321;DHT22;16323;51.130;6.612;2022-10-16T07:35:55;20.50;92.70
29321;DHT22;16323;51.130;6.612;2022-10-16T07:38:22;20.50;92.60
29321;DHT22;16323;51.130;6.612;2022-10-16T07:40:56;20.50;92.60
29321;DHT22;16323;51.130;6.612;2022-10-16T07:43:25;20.50;92.50
29321;DHT22;16323;51.130;6.612;2022-10-16T07:45:52;20.50;92.40
29321;DHT22;16323;51.130;6.612;2022-10-16T07:48:20;20.50;92.30
29321;DHT22;16323;51.130;6.612;2022-10-16T07:50:56;20.50;92.10
29321;DHT22;16323;51.130;6.612;2022-10-16T07:53:23;20.60;91.90
29321;DHT22;16323;51.130;6.612;2022-10-16T07:55:50;20.60;91.80
29321;DHT22;16323;51.130;6.612;2022-10-16T07:58:16;20.60;91.80
29321;DHT22;16323;51.130;6.612;2022-10-16T08:00:45;20.60;91.70
29321;DHT22;16323;51.130;6.612;2022-10-16T08:03:11;20.60;91.60
29321;DHT22;16323;51.130;6.612;2022-10-16T08:05:38;20.60;91.80
29321;DHT22;16323;51.130;6.612;2022-10-16T08:08:05;20.60;91.80
29321;DHT22;16323;51.130;6.612;2022-10-16T08:10:32;20.60;91.80
29321;DHT22;16323;51.130;6.612;2022-10-16T08:12:58;20.60;91.80
29321;DHT22;16323;51.130;6.612;2022-10-16T08:15:25;20.60;91.70
29321;DHT22;16323;51.130;6.612;2022-10-16T08:17:58;20.60;91.70
29321;DHT22;16323;51.130;6.612;2022-10-16T08:20:25;20.60;91.80
29321;DHT22;16323;51.130;6.612;2022-10-16T08:22:53;20.60;91.80
29321;DHT22;16323;51.130;6.612;2022-10-16T08:25:20;20.60;91.90
29321;DHT22;16323;51.130;6.612;2022-10-16T08:27:47;20.60;91.90
29321;DHT22;16323;51.130;6.612;2022-10-16T08:30:51;20.60;91.90
29321;DHT22;16323;51.130;6.612;2022-10-16T08:33:19;20.60;91.90
29321;DHT22;16323;51.130;6.612;2022-10-16T08:35:51;20.60;91.80
29321;DHT22;16323;51.130;6.612;2022-10-16T08:38:19;20.60;91.80
29321;DHT22;16323;51.130;6.612;2022-10-16T08:40:46;20.60;91.80
29321;DHT22;16323;51.130;6.612;2022-10-16T08:43:30;20.70;91.80
29321;DHT22;16323;51.130;6.612;2022-10-16T08:46:19;20.70;91.80
29321;DHT22;16323;51.130;6.612;2022-10-16T08:48:50;20.70;91.80
29321;DHT22;16323;51.130;6.612;2022-10-16T08:51:21;20.70;91.80
29321;DHT22;16323;51.130;6.612;2022-10-16T08:53:52;20.70;91.80
29321;DHT22;16323;51.130;6.612;2022-10-16T08:56:20;20.80;91.80
29321;DHT22;16323;51.130;6.612;2022-10-16T08:58:48;20.80;91.80
29321;DHT22;16323;51.130;6.612;2022-10-16T09:01:16;20.80;91.80
29321;DHT22;16323;51.130;6.612;2022-10-16T09:07:03;20.80;91.90
29321;DHT22;16323;51.130;6.612;2022-10-16T09:09:40;20.80;91.90
29321;DHT22;16323;51.130;6.612;2022-10-16T09:12:12;20.80;92.00
29321;DHT22;16323;51.130;6.612;2022-10-16T09:14:48;20.80;92.10
29321;DHT22;16323;51.130;6.612;2022-10-16T09:17:37;20.80;92.10
29321;DHT22;16323;51.130;6.612;2022-10-16T09:20:28;20.80;92.20
29321;DHT22;16323;51.130;6.612;2022-10-16T09:23:17;20.80;92.20
29321;DHT22;16323;51.130;6.612;2022-10-16T09:25:47;20.70;92.20
29321;DHT22;16323;51.130;6.612;2022-10-16T09:28:14;20.70;92.30
29321;DHT22;16323;51.130;6.612;2022-10-16T09:30:41;20.70;92.30
29321;DHT22;16323;51.130;6.612;2022-10-16T09:33:10;20.70;92.30
29321;DHT22;16323;51.130;6.612;2022-10-16T09:35:39;20.70;92.20
29321;DHT22;16323;51.130;6.612;2022-10-16T09:38:07;20.70;92.10
29321;DHT22;16323;51.130;6.612;2022-10-16T09:40:36;20.70;92.10
29321;DHT22;16323;51.130;6.612;2022-10-16T09:43:26;20.70;92.10
29321;DHT22;16323;51.130;6.612;2022-10-16T09:46:00;20.70;92.10
29321;DHT22;16323;51.130;6.612;2022-10-16T09:48:31;20.70;92.10
29321;DHT22;16323;51.130;6.612;2022-10-16T09:51:02;20.70;92.10
29321;DHT22;16323;51.130;6.612;2022-10-16T09:53:39;20.70;92.10
29321;DHT22;16323;51.130;6.612;2022-10-16T09:56:10;20.70;92.10
29321;DHT22;16323;51.130;6.612;2022-10-16T09:58:42;20.70;92.00
29321;DHT22;16323;51.130;6.612;2022-10-16T10:01:13;20.70;92.00
29321;DHT22;16323;51.130;6.612;2022-10-16T10:03:41;20.70;92.00
29321;DHT22;16323;51.130;6.612;2022-10-16T10:06:18;20.70;92.00
29321;DHT22;16323;51.130;6.612;2022-10-16T10:08:59;20.70;91.90
29321;DHT22;16323;51.130;6.612;2022-10-16T10:11:52;20.70;92.00
29321;DHT22;16323;51.130;6.612;2022-10-16T10:14:22;20.70;91.90
29321;DHT22;16323;51.130;6.612;2022-10-16T10:16:51;20.70;91.90
29321;DHT22;16323;51.130;6.612;2022-10-16T10:19:19;20.70;91.90
29321;DHT22;16323;51.130;6.612;2022-10-16T10:21:47;20.70;91.90
29321;DHT22;16323;51.130;6.612;2022-10-16T10:24:15;20.70;91.90
29321;DHT22;16323;51.130;6.612;2022-10-16T10:26:53;20.70;91.90
29321;DHT22;16323;51.130;6.612;2022-10-16T10:29:34;20.70;91.90
29321;DHT22;16323;51.130;6.612;2022-10-16T10:32:17;20.70;91.90
29321;DHT22;16323;51.130;6.612;2022-10-16T10:35:02;20.70;91.90
29321;DHT22;16323;51.130;6.612;2022-10-16T10:37:41;20.70;91.80
29321;DHT22;16323;51.130;6.612;2022-10-16T10:40:19;20.70;91.80
29321;DHT22;16323;51.130;6.612;2022-10-16T10:42:56;20.60;91.70
29321;DHT22;16323;51.130;6.612;2022-10-16T10:45:27;20.70;91.70
29321;DHT22;16323;51.130;6.612;2022-10-16T10:48:08;20.60;91.70
29321;DHT22;16323;51.130;6.612;2022-10-16T10:50:43;20.60;91.80
29321;DHT22;16323;51.130;6.612;2022-10-16T10:53:21;20.60;91.80
29321;DHT22;16323;51.130;6.612;2022-10-16T10:55:54;20.60;91.80
29321;DHT22;16323;51.130;6.612;2022-10-16T10:58:42;20.60;91.90
29321;DHT22;16323;51.130;6.612;2022-10-16T11:01:13;20.60;91.80
29321;DHT22;16323;51.130;6.612;2022-10-16T11:03:58;20.60;91.80
29321;DHT22;16323;51.130;6.612;2022-10-16T11:06:31;20.60;91.80
29321;DHT22;16323;51.130;6.612;2022-10-16T11:09:02;20.60;91.80
29321;DHT22;16323;51.130;6.612;2022-10-16T11:11:37;20.60;91.80
29321;DHT22;16323;51.130;6.612;2022-10-16T11:14:14;20.60;91.70
29321;DHT22;16323;51.130;6.612;2022-10-16T11:16:48;20.60;91.60
29321;DHT22;16323;51.130;6.612;2022-10-16T11:19:25;20.60;91.60
29321;DHT22;16323;51.130;6.612;2022-10-16T11:22:00;20.60;91.60
29321;DHT22;16323;51.130;6.612;2022-10-16T11:24:36;20.60;91.60
29321;DHT22;16323;51.130;6.612;2022-10-16T11:27:09;20.60;91.60
29321;DHT22;16323;51.130;6.612;2022-10-16T11:29:45;20.60;91.50
29321;DHT22;16323;51.130;6.612;2022-10-16T11:32:20;20.60;91.50
29321;DHT22;16323;51.130;6.612;2022-10-16T11:34:50;20.60;91.50
29321;DHT22;16323;51.130;6.612;2022-10-16T11:37:20;20.60;91.40
29321;DHT22;16323;51.130;6.612;2022-10-16T11:39:50;20.60;91.40
29321;DHT22;16323;51.130;6.612;2022-10-16T11:42:22;20.60;91.50
29321;DHT22;16323;51.130;6.612;2022-10-16T11:44:57;20.60;91.60
29321;DHT22;16323;51.130;6.612;2022-10-16T11:47:27;20.60;91.60
29321;DHT22;16323;51.130;6.612;2022-10-16T11:49:59;20.60;91.60
29321;DHT22;16323;51.130;6.612;2022-10-16T11:52:33;20.60;91.60
29321;DHT22;16323;51.130;6.612;2022-10-16T11:55:08;20.60;91.60
29321;DHT22;16323;51.130;6.612;2022-10-16T11:57:42;20.60;92.00
29321;DHT22;16323;51.130;6.612;2022-10-16T12:00:20;20.60;91.50
29321;DHT22;16323;51.130;6.612;2022-10-16T12:02:54;20.60;91.50
29321;DHT22;16323;51.130;6.612;2022-10-16T12:05:28;20.60;91.40
29321;DHT22;16323;51.130;6.612;2022-10-16T12:08:05;20.60;91.40
29321;DHT22;16323;51.130;6.612;2022-10-16T12:10:35;20.60;91.40
29321;DHT22;16323;51.130;6.612;2022-10-16T12:13:03;20.60;91.30
29321;DHT22;16323;51.130;6.612;2022-10-16T12:15:33;20.60;91.30
29321;DHT22;16323;51.130;6.612;2022-10-16T12:18:00;20.60;91.20
29321;DHT22;16323;51.130;6.612;2022-10-16T12:20:29;20.60;91.20
29321;DHT22;16323;51.130;6.612;2022-10-16T12:22:59;20.60;91.10
29321;DHT22;16323;51.130;6.612;2022-10-16T12:25:29;20.70;91.10
29321;DHT22;16323;51.130;6.612;2022-10-16T12:28:01;20.60;91.10
29321;DHT22;16323;51.130;6.612;2022-10-16T12:30:32;20.70;91.10
29321;DHT22;16323;51.130;6.612;2022-10-16T12:33:02;20.70;91.10
29321;DHT22;16323;51.130;6.612;2022-10-16T12:35:32;20.70;91.10
29321;DHT22;16323;51.130;6.612;2022-10-16T12:38:08;20.70;91.10
29321;DHT22;16323;51.130;6.612;2022-10-16T12:40:39;20.70;91.10
29321;DHT22;16323;51.130;6.612;2022-10-16T12:43:13;20.70;91.20
29321;DHT22;16323;51.130;6.612;2022-10-16T12:46:01;20.70;91.20
29321;DHT22;16323;51.130;6.612;2022-10-16T12:48:28;20.70;91.20
29321;DHT22;16323;51.130;6.612;2022-10-16T12:50:55;20.70;91.20
29321;DHT22;16323;51.130;6.612;2022-10-16T12:53:24;20.70;91.20
29321;DHT22;16323;51.130;6.612;2022-10-16T12:56:00;20.70;91.20
29321;DHT22;16323;51.130;6.612;2022-10-16T12:58:55;20.70;91.20
29321;DHT22;16323;51.130;6.612;2022-10-16T13:01:36;20.70;91.20
29321;DHT22;16323;51.130;6.612;2022-10-16T13:04:14;20.70;91.20
29321;DHT22;16323;51.130;6.612;2022-10-16T13:06:48;20.70;91.30
29321;DHT22;16323;51.130;6.612;2022-10-16T13:09:27;20.70;91.30
29321;DHT22;16323;51.130;6.612;2022-10-16T13:12:07;20.70;91.30
29321;DHT22;16323;51.130;6.612;2022-10-16T13:17:46;20.60;91.30
29321;DHT22;16323;51.130;6.612;2022-10-16T13:20:22;20.70;91.30
29321;DHT22;16323;51.130;6.612;2022-10-16T13:23:00;20.70;91.30
29321;DHT22;16323;51.130;6.612;2022-10-16T13:25:38;20.70;91.40
29321;DHT22;16323;51.130;6.612;2022-10-16T13:28:08;20.60;91.30
29321;DHT22;16323;51.130;6.612;2022-10-16T13:30:39;20.60;91.40
29321;DHT22;16323;51.130;6.612;2022-10-16T13:33:13;20.60;91.40
29321;DHT22;16323;51.130;6.612;2022-10-16T13:35:48;20.60;91.30
29321;DHT22;16323;51.130;6.612;2022-10-16T13:38:18;20.60;91.30
29321;DHT22;16323;51.130;6.612;2022-10-16T13:40:50;20.70;91.30
29321;DHT22;16323;51.130;6.612;2022-10-16T13:43:18;20.70;91.30
29321;DHT22;16323;51.130;6.612;2022-10-16T13:45:53;20.70;91.30
29321;DHT22;16323;51.130;6.612;2022-10-16T13:48:22;20.70;91.30
29321;DHT22;16323;51.130;6.612;2022-10-16T13:50:59;20.70;91.20
29321;DHT22;16323;51.130;6.612;2022-10-16T13:53:26;20.70;91.30
29321;DHT22;16323;51.130;6.612;2022-10-16T13:55:53;20.70;91.20
29321;DHT22;16323;51.130;6.612;2022-10-16T13:58:20;20.70;91.20
29321;DHT22;16323;51.130;6.612;2022-10-16T14:00:54;20.70;91.30
29321;DHT22;16323;51.130;6.612;2022-10-16T14:03:23;20.70;91.20
29321;DHT22;16323;51.130;6.612;2022-10-16T14:05:52;20.70;91.30
29321;DHT22;16323;51.130;6.612;2022-10-16T14:08:20;20.70;91.20
29321;DHT22;16323;51.130;6.612;2022-10-16T14:11:20;20.70;91.30
29321;DHT22;16323;51.130;6.612;2022-10-16T14:13:48;20.60;91.30
29321;DHT22;16323;51.130;6.612;2022-10-16T14:16:18;20.60;91.30
29321;DHT22;16323;51.130;6.612;2022-10-16T14:18:56;20.60;91.30
29321;DHT22;16323;51.130;6.612;2022-10-16T14:21:24;20.60;91.30
29321;DHT22;16323;51.130;6.612;2022-10-16T14:23:52;20.60;91.60
29321;DHT22;16323;51.130;6.612;2022-10-16T15:58:52;20.60;91.10
29321;DHT22;16323;51.130;6.612;2022-10-16T17:59:50;20.50;90.90
